Time;durP1;ratioP1;P1;durP2;ratioP2;P2;SDS_P1;SDS_P2;PMS_P1;PMS_P2;Temp;Humidity;BMP_temperature;BMP_pressure;BME280_temperature;BME280_humidity;BME280_pressure;Samples;Min_cycle;Max_cycle;Signal;HPM_P1;HPM_P2
2021/05/01 00:00:43;;;;;;;29.23;21.87;;;8.30;60.60;;;;;;6254674;22;39101;-77
2021/05/01 00:03:10;;;;;;;26.70;20.43;;;8.30;60.50;;;;;;6251748;22;37514;-77
2021/05/01 00:05:38;;;;;;;27.13;21.57;;;8.20;60.80;;;;;;6224938;22;39438;-78
2021/05/01 00:08:06;;;;;;;29.30;21.87;;;8.30;60.80;;;;;;6224747;22;37691;-78
2021/05/01 00:10:33;;;;;;;31.50;22.73;;;8.20;60.90;;;;;;6251207;22;38777;-78
2021/05/01 00:13:02;;;;;;;30.07;22.90;;;8.20;60.70;;;;;;6251509;22;37149;-78
2021/05/01 00:15:30;;;;;;;31.40;21.90;;;8.10;60.80;;;;;;6252010;22;39585;-78
2021/05/01 00:18:00;;;;;;;29.20;21.17;;;8.10;61.20;;;;;;6251904;22;39830;-77
2021/05/01 00:20:27;;;;;;;26.50;20.43;;;8.00;61.10;;;;;;6223747;22;38004;-78
2021/05/01 00:22:55;;;;;;;35.10;23.60;;;8.00;61.40;;;;;;6250382;22;37163;-78
2021/05/01 00:25:28;;;;;;;31.20;23.40;;;7.90;61.60;;;;;;6249929;22;39376;-78
2021/05/01 00:27:55;;;;;;;32.83;24.03;;;7.90;61.90;;;;;;6223226;22;39047;-79
2021/05/01 00:30:24;;;;;;;33.67;23.80;;;7.90;62.60;;;;;;6223277;22;36855;-78
2021/05/01 00:32:51;;;;;;;31.50;23.30;;;7.90;62.90;;;;;;6222955;22;36972;-78
2021/05/01 00:35:18;;;;;;;31.17;23.40;;;7.90;63.10;;;;;;6249889;22;39506;-79
2021/05/01 00:37:47;;;;;;;30.03;23.43;;;8.00;63.20;;;;;;6250076;22;39816;-78
2021/05/01 00:40:16;;;;;;;33.97;24.57;;;8.00;63.30;;;;;;6250574;22;39212;-79
2021/05/01 00:42:43;;;;;;;34.43;24.20;;;8.00;63.30;;;;;;6250045;22;38778;-78
2021/05/01 00:45:11;;;;;;;33.60;24.97;;;8.00;63.30;;;;;;6222924;22;39323;-78
2021/05/01 00:47:38;;;;;;;32.87;23.03;;;8.00;62.90;;;;;;6250572;22;39755;-78
2021/05/01 00:50:06;;;;;;;35.90;24.10;;;8.00;63.00;;;;;;6250598;22;38435;-79
2021/05/01 00:52:38;;;;;;;32.20;23.23;;;8.00;63.00;;;;;;6224396;22;36208;-79
2021/05/01 00:55:06;;;;;;;30.80;24.03;;;8.00;62.90;;;;;;6252285;22;40457;-79
2021/05/01 00:57:37;;;;;;;37.40;25.80;;;7.90;62.40;;;;;;6251279;22;38992;-78
2021/05/01 01:00:11;;;;;;;36.80;25.60;;;7.80;62.50;;;;;;6252159;22;38049;-77
2021/05/01 01:02:45;;;;;;;35.10;24.00;;;7.70;62.30;;;;;;6251954;22;36367;-78
2021/05/01 01:05:12;;;;;;;36.77;25.60;;;7.60;62.30;;;;;;6251535;22;39637;-78
2021/05/01 01:07:40;;;;;;;33.03;23.10;;;7.60;62.50;;;;;;6251332;22;38910;-78
2021/05/01 01:10:07;;;;;;;33.87;24.50;;;7.50;62.50;;;;;;6251099;22;37990;-77
2021/05/01 01:12:35;;;;;;;36.90;24.80;;;7.50;62.90;;;;;;6251908;22;37410;-78
2021/05/01 01:15:02;;;;;;;35.27;23.70;;;7.40;63.20;;;;;;6252177;22;39722;-77
2021/05/01 01:17:31;;;;;;;32.80;24.60;;;7.40;63.50;;;;;;6224709;22;37757;-78
2021/05/01 01:20:01;;;;;;;36.83;25.40;;;7.40;64.20;;;;;;6223096;22;37204;-77
2021/05/01 01:22:29;;;;;;;38.87;24.63;;;7.40;64.50;;;;;;6223086;22;36619;-78
2021/05/01 01:25:02;;;;;;;33.90;24.10;;;7.40;64.90;;;;;;6250187;22;39252;-78
2021/05/01 01:27:29;;;;;;;32.97;23.10;;;7.50;65.00;;;;;;6250851;22;39409;-79
2021/05/01 01:29:57;;;;;;;29.80;21.60;;;7.50;65.00;;;;;;6222608;22;37305;-77
2021/05/01 01:32:24;;;;;;;29.77;21.70;;;7.60;65.10;;;;;;6250471;22;37593;-78
2021/05/01 01:34:51;;;;;;;28.97;20.90;;;7.70;65.20;;;;;;6250376;22;39295;-77
2021/05/01 01:37:20;;;;;;;32.50;22.47;;;7.80;65.30;;;;;;6223308;22;40457;-78
2021/05/01 01:39:48;;;;;;;28.70;21.43;;;7.80;65.30;;;;;;6251319;22;38558;-77
2021/05/01 01:42:15;;;;;;;28.80;21.37;;;7.90;65.30;;;;;;6250514;22;36841;-77
2021/05/01 01:44:42;;;;;;;27.00;20.40;;;7.90;65.10;;;;;;6250759;22;39302;-77
2021/05/01 01:47:09;;;;;;;28.40;20.97;;;7.90;64.50;;;;;;6222054;22;37961;-77
2021/05/01 01:49:38;;;;;;;29.00;22.40;;;8.00;64.40;;;;;;6223188;22;36722;-78
2021/05/01 01:52:06;;;;;;;24.63;19.20;;;8.00;64.90;;;;;;6224155;22;36566;-78
2021/05/01 01:54:37;;;;;;;38.27;27.33;;;8.00;64.10;;;;;;6222713;22;38494;-78
2021/05/01 01:57:06;;;;;;;47.50;30.90;;;8.10;63.90;;;;;;6249671;22;38433;-79
2021/05/01 01:59:35;;;;;;;43.83;30.17;;;8.00;63.40;;;;;;6222938;22;36797;-78
2021/05/01 02:02:04;;;;;;;47.00;30.10;;;8.10;63.80;;;;;;6249871;22;37267;-79
2021/05/01 02:04:33;;;;;;;37.50;27.07;;;8.10;63.20;;;;;;6223398;22;39384;-78
2021/05/01 02:07:00;;;;;;;30.50;22.07;;;8.10;63.10;;;;;;6250755;22;39082;-80
2021/05/01 02:09:27;;;;;;;31.27;22.67;;;8.10;63.10;;;;;;6223900;22;36718;-80
2021/05/01 02:11:54;;;;;;;30.67;21.80;;;8.10;63.00;;;;;;6222632;22;37491;-80
2021/05/01 02:14:23;;;;;;;29.23;21.80;;;8.10;62.90;;;;;;6250464;22;39359;-80
2021/05/01 02:16:50;;;;;;;29.00;21.50;;;8.10;62.50;;;;;;6223314;22;38013;-80
2021/05/01 02:19:21;;;;;;;25.90;19.40;;;8.10;62.60;;;;;;6250903;22;38153;-80
2021/05/01 02:21:48;;;;;;;26.47;20.03;;;8.10;62.60;;;;;;6223146;22;36895;-79
2021/05/01 02:24:17;;;;;;;25.77;19.73;;;8.10;62.50;;;;;;6222894;22;39294;-80
2021/05/01 02:26:47;;;;;;;25.40;20.10;;;8.10;62.50;;;;;;6250893;22;39119;-79
2021/05/01 02:29:14;;;;;;;26.60;20.50;;;8.10;62.50;;;;;;6222842;22;36896;-79
2021/05/01 02:31:42;;;;;;;27.87;18.97;;;8.10;63.20;;;;;;6250320;22;38230;-79
2021/05/01 02:34:09;;;;;;;29.60;20.97;;;8.10;62.50;;;;;;6250094;22;39410;-79
2021/05/01 02:36:36;;;;;;;25.30;19.57;;;8.10;62.80;;;;;;6250412;22;38903;-79
2021/05/01 02:39:04;;;;;;;27.10;19.23;;;8.10;63.00;;;;;;6249654;22;39012;-79
2021/05/01 02:41:32;;;;;;;28.07;20.50;;;8.10;62.90;;;;;;6222282;22;36261;-79
2021/05/01 02:44:05;;;;;;;29.47;21.07;;;8.10;62.70;;;;;;6250002;22;39031;-80
2021/05/01 02:46:44;;;;;;;27.03;20.80;;;8.10;62.80;;;;;;6249163;22;39047;-79
2021/05/01 02:49:16;;;;;;;30.40;22.17;;;8.10;62.90;;;;;;6249606;22;38096;-80
2021/05/01 02:51:44;;;;;;;28.80;22.10;;;8.10;63.10;;;;;;6249704;22;37385;-79
2021/05/01 02:54:15;;;;;;;39.20;24.90;;;8.10;63.20;;;;;;6250263;22;40402;-79
2021/05/01 02:56:42;;;;;;;33.80;25.23;;;8.10;62.80;;;;;;6249439;22;39088;-79
2021/05/01 02:59:11;;;;;;;34.03;25.03;;;8.10;63.00;;;;;;6249592;22;38072;-80
2021/05/01 03:01:39;;;;;;;35.73;24.40;;;8.10;63.10;;;;;;6249810;22;37446;-79
2021/05/01 03:04:07;;;;;;;32.57;23.80;;;8.10;63.00;;;;;;6250063;22;40627;-79
2021/05/01 03:06:34;;;;;;;37.00;24.30;;;8.10;62.90;;;;;;6250268;22;39643;-79
2021/05/01 03:09:03;;;;;;;39.30;26.27;;;8.10;63.20;;;;;;6250236;22;37879;-79
2021/05/01 03:11:30;;;;;;;33.90;25.27;;;8.00;63.40;;;;;;6250429;22;37252;-79
2021/05/01 03:13:58;;;;;;;37.60;25.93;;;8.10;63.30;;;;;;6250437;22;39768;-79
2021/05/01 03:16:25;;;;;;;36.53;26.13;;;8.00;63.20;;;;;;6222716;22;39715;-78
2021/05/01 03:18:54;;;;;;;34.60;24.43;;;8.00;63.40;;;;;;6249800;22;37827;-79
2021/05/01 03:21:25;;;;;;;37.17;27.00;;;8.00;63.40;;;;;;6249896;22;37361;-78
2021/05/01 03:23:53;;;;;;;38.37;27.63;;;8.00;63.30;;;;;;6250313;22;40465;-78
2021/05/01 03:26:20;;;;;;;37.37;26.40;;;8.00;62.90;;;;;;6250329;22;39088;-79
2021/05/01 03:28:47;;;;;;;38.50;27.10;;;7.90;62.80;;;;;;6249866;22;38587;-78
2021/05/01 03:31:15;;;;;;;38.60;25.97;;;8.00;62.90;;;;;;6249277;22;37513;-79
2021/05/01 03:33:42;;;;;;;42.97;28.70;;;8.00;62.70;;;;;;6249483;22;39658;-80
2021/05/01 03:36:10;;;;;;;43.60;30.93;;;7.90;62.90;;;;;;6222213;22;38615;-79
2021/05/01 03:38:38;;;;;;;39.87;28.47;;;7.90;63.20;;;;;;6249876;22;37970;-79
2021/05/01 03:41:05;;;;;;;41.40;28.47;;;7.90;63.50;;;;;;6221924;22;36253;-79
2021/05/01 03:43:33;;;;;;;40.27;28.10;;;7.90;63.60;;;;;;6222226;22;38395;-79
2021/05/01 03:46:01;;;;;;;37.90;26.13;;;8.00;63.80;;;;;;6248967;22;39427;-78
2021/05/01 03:48:28;;;;;;;39.03;27.63;;;7.90;63.70;;;;;;6222280;22;37035;-79
2021/05/01 03:50:55;;;;;;;38.60;26.53;;;7.90;63.70;;;;;;6248976;22;38228;-78
2021/05/01 03:53:22;;;;;;;38.57;26.33;;;7.90;63.80;;;;;;6197568;22;38307;-78
2021/05/01 03:55:52;;;;;;;38.83;26.37;;;8.00;63.90;;;;;;6222670;22;38007;-78
2021/05/01 03:58:19;;;;;;;46.73;28.70;;;7.90;63.70;;;;;;6222364;22;37042;-78
2021/05/01 04:00:46;;;;;;;38.20;26.73;;;7.90;63.80;;;;;;6222448;22;36462;-77
2021/05/01 04:03:15;;;;;;;36.07;24.83;;;7.90;63.80;;;;;;6248859;22;39356;-78
2021/05/01 04:05:44;;;;;;;37.63;26.50;;;8.00;64.00;;;;;;6222152;22;37722;-78
2021/05/01 04:08:12;;;;;;;36.30;25.23;;;8.00;64.00;;;;;;6222047;22;38143;-78
2021/05/01 04:10:39;;;;;;;33.70;25.20;;;8.10;64.00;;;;;;6222682;22;36247;-78
2021/05/01 04:13:07;;;;;;;37.50;25.50;;;8.10;64.10;;;;;;6249779;22;39543;-78
2021/05/01 04:15:34;;;;;;;33.27;23.93;;;8.10;63.90;;;;;;6249174;22;39984;-79
2021/05/01 04:18:01;;;;;;;34.30;24.60;;;8.10;63.80;;;;;;6249909;22;38955;-78
2021/05/01 04:20:28;;;;;;;35.83;25.87;;;8.10;63.70;;;;;;6221747;22;37341;-78
2021/05/01 04:22:58;;;;;;;37.13;25.43;;;8.10;63.60;;;;;;6222750;22;38607;-78
2021/05/01 04:25:33;;;;;;;31.90;23.93;;;8.10;62.90;;;;;;6249011;22;39219;-78
2021/05/01 04:28:00;;;;;;;33.50;22.77;;;8.00;62.50;;;;;;6222434;22;37612;-78
2021/05/01 04:30:29;;;;;;;33.43;23.40;;;8.00;62.20;;;;;;6222569;22;36318;-79
2021/05/01 04:32:56;;;;;;;32.13;22.97;;;8.00;62.50;;;;;;6223509;22;38404;-78
2021/05/01 04:35:23;;;;;;;30.00;22.77;;;8.10;62.50;;;;;;6250592;22;39644;-78
2021/05/01 04:37:50;;;;;;;31.40;23.33;;;8.10;62.30;;;;;;6250736;22;37869;-76
2021/05/01 04:40:17;;;;;;;32.53;24.77;;;8.10;62.20;;;;;;6249580;22;37543;-77
2021/05/01 04:42:50;;;;;;;32.70;23.73;;;8.20;62.40;;;;;;6224217;22;40293;-77
2021/05/01 04:45:21;;;;;;;28.90;21.30;;;8.20;62.30;;;;;;6224254;22;37625;-77
2021/05/01 04:47:48;;;;;;;29.07;21.00;;;8.30;62.00;;;;;;6250488;22;38348;-78
2021/05/01 04:50:16;;;;;;;32.37;22.50;;;8.30;61.90;;;;;;6252313;22;37391;-77
2021/05/01 04:52:42;;;;;;;27.90;21.87;;;8.40;61.60;;;;;;6225302;22;39763;-79
2021/05/01 04:55:13;;;;;;;29.10;22.00;;;8.50;61.60;;;;;;6252163;22;39102;-78
2021/05/01 04:57:42;;;;;;;28.83;20.53;;;8.50;61.00;;;;;;6252668;22;39015;-78
2021/05/01 05:00:11;;;;;;;28.93;22.27;;;8.50;61.20;;;;;;6224143;22;36131;-77
2021/05/01 05:02:38;;;;;;;30.43;21.50;;;8.60;60.80;;;;;;6227377;22;40042;-78
2021/05/01 05:05:09;;;;;;;30.43;22.57;;;8.60;60.80;;;;;;6255838;22;38996;-78
2021/05/01 05:07:36;;;;;;;28.30;21.23;;;8.60;60.50;;;;;;6256509;22;38384;-80
2021/05/01 05:10:04;;;;;;;31.10;21.43;;;8.70;60.80;;;;;;6254686;22;37227;-79
2021/05/01 05:12:32;;;;;;;29.23;21.70;;;8.70;60.90;;;;;;6228862;22;38385;-77
2021/05/01 05:14:59;;;;;;;28.07;21.70;;;8.80;60.90;;;;;;6253272;22;39394;-77
2021/05/01 05:17:28;;;;;;;27.83;21.87;;;8.90;60.40;;;;;;6252261;22;37592;-78
2021/05/01 05:19:55;;;;;;;26.20;19.23;;;8.90;59.90;;;;;;6252918;22;38571;-80
2021/05/01 05:22:25;;;;;;;30.43;21.80;;;9.00;59.80;;;;;;6228932;22;38195;-81
2021/05/01 05:24:52;;;;;;;28.47;20.93;;;9.00;59.40;;;;;;6226188;22;37642;-78
2021/05/01 05:27:20;;;;;;;25.47;18.33;;;9.00;59.50;;;;;;6252396;22;38039;-79
2021/05/01 05:29:50;;;;;;;25.97;20.50;;;9.00;59.00;;;;;;6254585;22;38692;-78
2021/05/01 05:32:18;;;;;;;25.83;19.20;;;9.00;58.60;;;;;;6253069;22;40281;-78
2021/05/01 05:34:46;;;;;;;25.60;19.43;;;9.00;58.40;;;;;;6252102;22;38914;-78
2021/05/01 05:37:14;;;;;;;24.10;18.40;;;9.00;58.10;;;;;;6224245;22;38703;-78
2021/05/01 05:39:48;;;;;;;28.00;19.57;;;9.00;58.00;;;;;;6250978;22;36986;-79
2021/05/01 05:42:15;;;;;;;23.33;18.40;;;9.00;58.10;;;;;;6224957;22;39522;-78
2021/05/01 05:44:44;;;;;;;24.07;18.17;;;9.10;57.90;;;;;;6251150;22;39862;-78
2021/05/01 05:47:12;;;;;;;24.67;18.90;;;9.10;58.10;;;;;;6224761;22;36924;-78
2021/05/01 05:49:39;;;;;;;27.10;20.23;;;9.00;58.20;;;;;;6251426;22;37750;-78
2021/05/01 05:52:06;;;;;;;20.77;16.43;;;9.00;58.30;;;;;;6250886;22;39576;-76
2021/05/01 05:54:33;;;;;;;21.50;16.27;;;9.00;58.60;;;;;;6251764;22;38749;-79
2021/05/01 05:57:01;;;;;;;22.70;17.80;;;9.10;57.90;;;;;;6223328;22;37547;-78
2021/05/01 05:59:28;;;;;;;21.90;17.80;;;9.20;57.70;;;;;;6251124;22;37346;-78
2021/05/01 06:01:59;;;;;;;21.27;17.00;;;9.30;56.90;;;;;;6225209;22;39779;-78
2021/05/01 06:04:31;;;;;;;22.73;17.63;;;9.30;57.10;;;;;;6251502;22;40526;-78
2021/05/01 06:07:10;;;;;;;21.77;17.00;;;9.30;57.30;;;;;;6251763;22;37816;-78
2021/05/01 06:09:39;;;;;;;21.33;16.50;;;9.40;57.60;;;;;;6252042;22;37244;-80
2021/05/01 06:12:09;;;;;;;20.30;16.87;;;9.40;56.60;;;;;;6251397;22;38991;-78
2021/05/01 06:14:41;;;;;;;17.57;14.37;;;9.70;56.70;;;;;;6250960;22;38960;-78
2021/05/01 06:17:09;;;;;;;17.90;13.47;;;9.80;56.30;;;;;;6224760;22;36784;-79
2021/05/01 06:19:39;;;;;;;14.67;12.03;;;10.00;53.10;;;;;;6252500;22;37476;-78
2021/05/01 06:22:06;;;;;;;16.30;13.20;;;10.00;51.60;;;;;;6227474;22;38600;-78
2021/05/01 06:24:33;;;;;;;16.63;13.80;;;10.10;51.50;;;;;;6227912;22;37818;-78
2021/05/01 06:27:01;;;;;;;17.73;14.20;;;10.20;50.60;;;;;;6254043;22;39071;-77
2021/05/01 06:29:32;;;;;;;18.63;15.50;;;10.30;50.80;;;;;;6257997;22;37612;-79
2021/05/01 06:31:59;;;;;;;20.50;16.00;;;10.40;51.00;;;;;;6260524;22;40133;-77
2021/05/01 06:34:27;;;;;;;19.90;15.87;;;10.50;50.70;;;;;;6255714;22;39481;-77
2021/05/01 06:36:55;;;;;;;19.07;12.83;;;10.30;50.80;;;;;;6233802;22;36902;-77
2021/05/01 06:39:24;;;;;;;18.67;14.30;;;10.30;50.70;;;;;;6254890;22;37327;-79
2021/05/01 06:41:56;;;;;;;16.60;13.60;;;10.30;50.20;;;;;;6252032;22;39803;-79
2021/05/01 06:44:40;;;;;;;17.97;15.13;;;10.40;49.70;;;;;;6251392;22;39103;-80
2021/05/01 06:47:10;;;;;;;17.33;13.90;;;10.60;49.60;;;;;;6223541;22;37780;-79
2021/05/01 06:49:49;;;;;;;17.63;13.63;;;10.80;49.80;;;;;;6251151;22;37507;-80
2021/05/01 06:52:17;;;;;;;17.40;13.53;;;10.80;49.50;;;;;;6251821;22;39362;-79
2021/05/01 06:54:48;;;;;;;15.97;13.33;;;10.90;49.50;;;;;;6252004;22;39489;-78
2021/05/01 06:57:19;;;;;;;20.63;15.53;;;11.00;48.90;;;;;;6260881;22;38215;-78
2021/05/01 06:59:50;;;;;;;19.30;14.40;;;11.10;48.40;;;;;;6252738;22;37090;-78
2021/05/01 07:02:18;;;;;;;17.87;14.07;;;10.90;48.50;;;;;;6251368;22;40059;-77
2021/05/01 07:04:51;;;;;;;20.20;14.47;;;11.00;48.50;;;;;;6251097;22;39105;-78
2021/05/01 07:07:20;;;;;;;18.63;15.53;;;10.90;48.00;;;;;;6251687;22;38686;-78
2021/05/01 07:09:50;;;;;;;17.83;14.07;;;11.00;48.80;;;;;;6223570;22;37244;-77
2021/05/01 07:12:19;;;;;;;17.60;14.43;;;10.90;48.30;;;;;;6250820;22;40577;-76
2021/05/01 07:14:47;;;;;;;22.93;15.27;;;10.80;48.80;;;;;;6250709;22;39396;-76
2021/05/01 07:17:17;;;;;;;18.73;14.70;;;10.80;49.80;;;;;;6251247;22;38681;-78
2021/05/01 07:19:47;;;;;;;18.67;14.60;;;10.80;49.40;;;;;;6251633;22;36789;-77
2021/05/01 07:22:14;;;;;;;36.67;27.10;;;10.80;48.20;;;;;;6251426;22;39630;-76
2021/05/01 07:24:41;;;;;;;20.43;15.27;;;10.60;48.30;;;;;;6252031;22;39822;-77
2021/05/01 07:27:09;;;;;;;17.60;13.73;;;10.60;49.10;;;;;;6227928;22;37195;-76
2021/05/01 07:29:39;;;;;;;18.60;14.60;;;10.60;49.40;;;;;;6264386;22;37373;-76
2021/05/01 07:32:09;;;;;;;18.67;14.43;;;10.60;49.30;;;;;;6259860;22;39740;-77
2021/05/01 07:34:37;;;;;;;18.40;14.90;;;10.60;49.60;;;;;;6230314;22;39283;-77
2021/05/01 07:37:06;;;;;;;17.93;13.73;;;10.50;49.20;;;;;;6253932;22;38935;-76
2021/05/01 07:39:34;;;;;;;18.93;15.10;;;10.50;49.20;;;;;;6251708;22;37910;-77
2021/05/01 07:42:03;;;;;;;19.87;15.60;;;10.50;49.00;;;;;;6250026;22;40132;-77
2021/05/01 07:44:31;;;;;;;20.77;14.43;;;10.70;49.50;;;;;;6223506;22;38692;-76
2021/05/01 07:46:59;;;;;;;20.63;15.47;;;10.70;48.90;;;;;;6232987;22;36827;-76
2021/05/01 07:49:28;;;;;;;19.60;14.67;;;10.90;49.40;;;;;;6254708;22;37484;-77
2021/05/01 07:51:56;;;;;;;19.67;15.70;;;10.90;48.70;;;;;;6251146;22;40005;-77
2021/05/01 07:54:23;;;;;;;20.77;15.47;;;11.00;48.90;;;;;;6251233;22;39034;-77
2021/05/01 07:56:52;;;;;;;22.23;16.40;;;10.90;48.70;;;;;;6250975;22;38938;-77
2021/05/01 07:59:19;;;;;;;20.97;16.30;;;11.00;49.00;;;;;;6224066;22;36046;-77
2021/05/01 08:01:49;;;;;;;21.43;16.07;;;11.10;48.90;;;;;;6251034;22;39697;-78
2021/05/01 08:04:16;;;;;;;22.10;16.53;;;11.00;49.20;;;;;;6225330;22;39425;-77
2021/05/01 08:06:44;;;;;;;22.60;16.70;;;11.00;49.00;;;;;;6224978;22;36986;-78
2021/05/01 08:09:11;;;;;;;21.90;16.50;;;11.10;48.80;;;;;;6251556;22;37340;-78
2021/05/01 08:11:38;;;;;;;21.53;16.67;;;11.00;48.30;;;;;;6225259;22;38640;-78
2021/05/01 08:14:05;;;;;;;20.00;16.17;;;11.10;48.80;;;;;;6253734;22;39836;-78
2021/05/01 08:16:32;;;;;;;19.30;15.07;;;11.20;48.80;;;;;;6251959;22;38140;-79
2021/05/01 08:19:02;;;;;;;20.60;15.27;;;11.20;48.00;;;;;;6250659;22;37244;-78
2021/05/01 08:21:29;;;;;;;20.00;16.27;;;11.10;47.40;;;;;;6251466;22;39607;-78
2021/05/01 08:23:57;;;;;;;21.10;17.57;;;11.00;48.00;;;;;;6224316;22;38088;-78
2021/05/01 08:26:24;;;;;;;20.40;15.67;;;11.00;47.90;;;;;;6224601;22;36661;-78
2021/05/01 08:28:51;;;;;;;20.80;16.10;;;11.00;48.70;;;;;;6250737;22;37154;-78
2021/05/01 08:31:20;;;;;;;20.40;15.40;;;11.20;48.00;;;;;;6255918;22;39514;-79
2021/05/01 08:33:47;;;;;;;21.13;16.07;;;11.20;47.60;;;;;;6251843;22;39722;-79
2021/05/01 08:36:15;;;;;;;20.53;16.47;;;11.30;48.10;;;;;;6224447;22;37513;-79
2021/05/01 08:38:42;;;;;;;21.00;15.43;;;11.30;47.30;;;;;;6252137;22;38710;-78
2021/05/01 08:41:10;;;;;;;21.53;16.80;;;11.20;47.30;;;;;;6252153;22;40460;-78
2021/05/01 08:43:37;;;;;;;24.37;17.73;;;11.20;47.70;;;;;;6258770;22;39711;-77
2021/05/01 08:46:12;;;;;;;21.67;16.27;;;11.30;47.80;;;;;;6253765;22;37917;-79
2021/05/01 08:48:44;;;;;;;19.33;14.47;;;11.30;47.70;;;;;;6253661;22;37410;-78
2021/05/01 08:51:28;;;;;;;20.00;14.97;;;11.50;47.40;;;;;;6231094;22;40299;-78
2021/05/01 08:53:55;;;;;;;18.20;14.50;;;11.90;47.60;;;;;;6259663;22;39007;-78
2021/05/01 08:56:23;;;;;;;18.23;14.80;;;12.20;46.50;;;;;;6234354;22;36719;-79
2021/05/01 08:58:54;;;;;;;20.20;14.30;;;12.40;45.80;;;;;;6231846;22;35960;-78
2021/05/01 09:01:24;;;;;;;19.33;14.10;;;12.60;45.40;;;;;;6229439;22;39247;-79
2021/05/01 09:03:52;;;;;;;17.10;14.20;;;12.80;45.00;;;;;;6235946;22;37933;-78
2021/05/01 09:06:22;;;;;;;17.03;13.90;;;12.80;44.60;;;;;;6231248;22;37067;-79
2021/05/01 09:09:07;;;;;;;18.00;14.53;;;12.90;44.10;;;;;;6256130;22;38346;-79
2021/05/01 09:11:38;;;;;;;16.10;13.37;;;13.00;44.00;;;;;;6258239;22;40376;-81
2021/05/01 09:14:19;;;;;;;17.87;15.03;;;13.00;44.40;;;;;;6250528;22;39335;-78
2021/05/01 09:16:58;;;;;;;16.70;12.90;;;13.20;44.50;;;;;;6255271;22;38525;-79
2021/05/01 09:19:34;;;;;;;18.33;14.50;;;13.40;44.40;;;;;;6255441;22;37677;-78
2021/05/01 09:22:05;;;;;;;16.70;14.40;;;13.70;43.90;;;;;;6251494;22;39581;-78
2021/05/01 09:24:34;;;;;;;18.57;14.10;;;13.90;43.80;;;;;;6245202;22;39548;-78
2021/05/01 09:27:03;;;;;;;17.00;13.67;;;13.90;42.40;;;;;;6224976;22;36265;-79
2021/05/01 09:29:33;;;;;;;18.17;13.93;;;13.90;43.30;;;;;;6226021;22;36744;-78
2021/05/01 09:32:04;;;;;;;17.23;13.63;;;14.10;42.60;;;;;;6224194;22;40113;-78
2021/05/01 09:34:39;;;;;;;15.20;13.30;;;14.20;42.70;;;;;;6251459;22;39875;-78
2021/05/01 09:37:08;;;;;;;17.83;13.53;;;14.20;42.30;;;;;;6252587;22;39265;-78
2021/05/01 09:39:48;;;;;;;17.40;13.70;;;14.00;41.90;;;;;;6226942;22;37258;-78
2021/05/01 09:42:17;;;;;;;16.17;13.40;;;14.00;42.40;;;;;;6261379;22;39686;-79
2021/05/01 09:44:46;;;;;;;18.87;14.27;;;14.10;42.20;;;;;;6258030;22;39513;-78
2021/05/01 09:47:18;;;;;;;18.97;14.60;;;13.90;41.90;;;;;;6228624;22;37284;-78
2021/05/01 09:49:46;;;;;;;15.73;13.50;;;13.80;42.20;;;;;;6251794;22;37411;-78
2021/05/01 09:52:16;;;;;;;17.40;14.63;;;13.70;42.40;;;;;;6252182;22;40049;-77
2021/05/01 09:54:46;;;;;;;15.87;13.13;;;13.60;42.80;;;;;;6252381;22;40000;-78
2021/05/01 09:57:16;;;;;;;15.77;12.43;;;13.50;43.40;;;;;;6252114;22;38223;-79
2021/05/01 09:59:45;;;;;;;16.07;13.10;;;13.40;43.00;;;;;;6224611;22;35984;-78
2021/05/01 10:02:14;;;;;;;14.30;12.10;;;13.30;43.30;;;;;;6250667;22;39930;-78
2021/05/01 10:04:57;;;;;;;14.07;12.40;;;13.20;43.10;;;;;;6223805;22;37885;-78
2021/05/01 10:07:25;;;;;;;15.73;12.20;;;13.30;43.00;;;;;;6251375;22;37857;-78
2021/05/01 10:09:55;;;;;;;14.53;11.90;;;13.40;43.10;;;;;;6251184;22;37158;-78
2021/05/01 10:12:33;;;;;;;16.10;12.27;;;13.50;42.70;;;;;;6224046;22;38022;-78
2021/05/01 10:15:02;;;;;;;14.37;12.87;;;13.60;42.90;;;;;;6251728;22;39926;-78
2021/05/01 10:17:29;;;;;;;14.20;11.57;;;13.70;42.90;;;;;;6251898;22;38930;-78
2021/05/01 10:19:57;;;;;;;14.57;12.17;;;13.90;42.50;;;;;;6251800;22;37534;-77
2021/05/01 10:22:30;;;;;;;15.93;12.37;;;14.00;42.00;;;;;;6250465;22;39543;-79
2021/05/01 10:24:59;;;;;;;15.97;12.77;;;13.90;41.50;;;;;;6250515;22;39122;-79
2021/05/01 10:27:27;;;;;;;16.13;13.77;;;13.90;42.10;;;;;;6224661;22;36992;-79
2021/05/01 10:30:09;;;;;;;16.10;12.97;;;13.70;41.70;;;;;;6224342;22;36992;-79
2021/05/01 10:32:45;;;;;;;16.57;13.40;;;13.70;42.80;;;;;;6253226;22;39623;-79
2021/05/01 10:35:12;;;;;;;17.53;13.40;;;13.60;42.30;;;;;;6255838;22;39657;-80
2021/05/01 10:37:55;;;;;;;17.83;13.00;;;13.70;42.50;;;;;;6227892;22;38230;-79
2021/05/01 10:40:23;;;;;;;16.70;12.77;;;13.70;42.20;;;;;;6252282;22;37284;-77
2021/05/01 10:43:16;;;;;;;15.80;13.27;;;13.50;42.20;;;;;;6223736;22;39433;-79
2021/05/01 10:45:55;;;;;;;19.40;14.10;;;13.20;42.40;;;;;;6252117;22;39524;-79
2021/05/01 10:48:24;;;;;;;15.30;12.47;;;13.00;43.20;;;;;;6253374;22;38821;-78
2021/05/01 10:51:05;;;;;;;15.70;12.60;;;13.00;43.70;;;;;;6252322;22;38566;-78
2021/05/01 10:53:32;;;;;;;15.40;12.97;;;13.00;44.20;;;;;;6252657;22;40507;-78
2021/05/01 10:56:00;;;;;;;15.80;11.90;;;12.90;44.10;;;;;;6251742;22;38892;-77
2021/05/01 10:58:45;;;;;;;13.07;11.50;;;13.00;44.40;;;;;;6251826;22;38553;-76
2021/05/01 11:01:32;;;;;;;15.63;12.47;;;13.20;44.60;;;;;;6252885;22;37591;-79
2021/05/01 11:04:01;;;;;;;13.63;11.90;;;13.40;43.70;;;;;;6253276;22;40479;-78
2021/05/01 11:06:39;;;;;;;17.97;13.20;;;13.70;43.40;;;;;;6256558;22;39456;-79
2021/05/01 11:09:08;;;;;;;15.20;12.70;;;13.80;42.70;;;;;;6228676;22;36836;-81
2021/05/01 11:11:38;;;;;;;16.53;12.83;;;14.00;42.50;;;;;;6256397;22;37674;-81
2021/05/01 11:14:14;;;;;;;15.40;13.10;;;14.00;42.00;;;;;;6252959;22;40093;-81
2021/05/01 11:16:49;;;;;;;14.40;12.30;;;14.00;41.80;;;;;;6225053;22;37835;-80
2021/05/01 11:19:19;;;;;;;16.00;14.03;;;13.90;41.90;;;;;;6252947;22;38314;-81
2021/05/01 11:21:48;;;;;;;16.67;12.80;;;13.90;42.30;;;;;;6252032;22;37424;-81
2021/05/01 11:24:15;;;;;;;16.50;13.80;;;13.80;42.10;;;;;;6252199;22;40648;-82
2021/05/01 11:26:44;;;;;;;16.90;12.77;;;13.80;41.90;;;;;;6224897;22;38781;-82
2021/05/01 11:29:15;;;;;;;18.53;13.40;;;13.80;42.20;;;;;;6228747;22;36882;-81
2021/05/01 11:31:44;;;;;;;15.10;13.03;;;14.00;42.70;;;;;;6205255;22;37131;-82
2021/05/01 11:34:13;;;;;;;17.10;13.80;;;14.00;42.60;;;;;;6255624;22;39793;-82
2021/05/01 11:36:54;;;;;;;17.13;14.20;;;13.90;41.90;;;;;;6226537;22;37822;-81
2021/05/01 11:39:22;;;;;;;15.00;12.00;;;13.70;41.90;;;;;;6261126;22;37961;-80
2021/05/01 11:41:51;;;;;;;14.40;12.80;;;13.80;42.50;;;;;;6228213;22;37058;-82
2021/05/01 11:44:23;;;;;;;17.03;14.77;;;13.90;42.60;;;;;;6256538;22;39500;-81
2021/05/01 11:46:55;;;;;;;15.80;13.43;;;14.10;42.70;;;;;;6255929;22;37938;-81
2021/05/01 11:49:29;;;;;;;19.07;16.30;;;14.30;42.20;;;;;;6258575;22;38420;-81
2021/05/01 11:52:18;;;;;;;22.23;18.83;;;14.50;42.30;;;;;;6257443;22;37526;-82
2021/05/01 11:55:12;;;;;;;16.07;14.27;;;14.70;41.70;;;;;;6228970;22;39312;-81
2021/05/01 11:57:44;;;;;;;16.67;14.17;;;14.80;41.30;;;;;;6244699;22;39362;-82
2021/05/01 12:00:14;;;;;;;17.33;13.93;;;14.70;40.00;;;;;;6229291;22;36842;-82
2021/05/01 12:02:45;;;;;;;14.93;13.33;;;14.70;40.80;;;;;;6254847;22;37448;-81
2021/05/01 12:05:13;;;;;;;23.37;14.13;;;14.70;41.00;;;;;;6252666;22;39385;-81
2021/05/01 12:07:46;;;;;;;16.67;13.87;;;14.50;41.10;;;;;;6230754;22;38833;-82
2021/05/01 12:10:16;;;;;;;17.33;14.10;;;14.30;40.90;;;;;;6256776;22;38297;-81
2021/05/01 12:12:52;;;;;;;17.23;15.07;;;14.40;41.70;;;;;;6255562;22;37816;-82
2021/05/01 12:15:20;;;;;;;17.70;14.47;;;14.60;41.60;;;;;;6255021;22;39687;-81
2021/05/01 12:17:55;;;;;;;15.33;13.73;;;14.60;41.20;;;;;;6255935;22;39798;-82
2021/05/01 12:20:24;;;;;;;14.50;13.00;;;14.70;41.30;;;;;;6229356;22;36918;-81
2021/05/01 12:22:52;;;;;;;15.73;14.03;;;14.80;41.50;;;;;;6259311;22;37980;-81
2021/05/01 12:25:38;;;;;;;16.30;14.40;;;14.80;41.20;;;;;;6256472;22;40044;-82
2021/05/01 12:28:08;;;;;;;16.17;13.67;;;14.80;41.20;;;;;;6254414;22;38894;-82
2021/05/01 12:31:04;;;;;;;18.50;14.00;;;14.80;41.50;;;;;;6232278;22;36824;-82
2021/05/01 12:33:50;;;;;;;19.00;15.70;;;14.70;41.50;;;;;;6257241;22;37198;-81
2021/05/01 12:36:25;;;;;;;17.00;14.63;;;14.60;41.70;;;;;;6259978;22;39829;-82
2021/05/01 12:38:54;;;;;;;17.60;15.00;;;14.50;41.70;;;;;;6236157;22;37352;-81
2021/05/01 12:41:24;;;;;;;17.17;14.93;;;14.50;41.80;;;;;;6256530;22;38230;-81
2021/05/01 12:43:52;;;;;;;17.13;13.93;;;14.50;41.80;;;;;;6258577;22;37201;-81